sensor_id;sensor_type;location;lat;lon;timestamp;P1;durP1;ratioP1;P2;durP2;ratioP2
76714;SDS011;65644;44.990;20.288;2023-02-15T00:01:36;73.27;;;42.13;;
76714;SDS011;65644;44.990;20.288;2023-02-15T00:04:03;74.80;;;40.87;;
76714;SDS011;65644;44.990;20.288;2023-02-15T00:06:29;71.53;;;40.30;;
76714;SDS011;65644;44.990;20.288;2023-02-15T00:08:55;68.43;;;39.10;;
76714;SDS011;65644;44.990;20.288;2023-02-15T00:11:22;67.43;;;38.47;;
76714;SDS011;65644;44.990;20.288;2023-02-15T00:16:35;61.37;;;35.83;;
76714;SDS011;65644;44.990;20.288;2023-02-15T00:19:01;69.43;;;37.20;;
76714;SDS011;65644;44.990;20.288;2023-02-15T00:21:31;61.93;;;35.03;;
76714;SDS011;65644;44.990;20.288;2023-02-15T00:23:57;61.87;;;34.80;;
76714;SDS011;65644;44.990;20.288;2023-02-15T00:26:24;59.87;;;33.93;;
76714;SDS011;65644;44.990;20.288;2023-02-15T00:28:50;61.97;;;34.67;;
76714;SDS011;65644;44.990;20.288;2023-02-15T00:31:17;62.57;;;33.43;;
76714;SDS011;65644;44.990;20.288;2023-02-15T00:33:43;57.83;;;33.53;;
76714;SDS011;65644;44.990;20.288;2023-02-15T00:36:09;54.10;;;31.43;;
76714;SDS011;65644;44.990;20.288;2023-02-15T00:38:36;58.27;;;32.60;;
76714;SDS011;65644;44.990;20.288;2023-02-15T00:41:03;61.90;;;32.87;;
76714;SDS011;65644;44.990;20.288;2023-02-15T00:43:30;58.87;;;32.53;;
76714;SDS011;65644;44.990;20.288;2023-02-15T00:45:56;52.07;;;30.70;;
76714;SDS011;65644;44.990;20.288;2023-02-15T00:48:22;56.33;;;32.70;;
76714;SDS011;65644;44.990;20.288;2023-02-15T00:50:49;56.20;;;32.30;;
76714;SDS011;65644;44.990;20.288;2023-02-15T00:53:16;57.57;;;32.73;;
76714;SDS011;65644;44.990;20.288;2023-02-15T00:55:42;53.77;;;32.30;;
76714;SDS011;65644;44.990;20.288;2023-02-15T00:58:09;59.10;;;32.00;;
76714;SDS011;65644;44.990;20.288;2023-02-15T01:00:35;55.97;;;31.53;;
76714;SDS011;65644;44.990;20.288;2023-02-15T01:03:01;52.83;;;30.80;;
76714;SDS011;65644;44.990;20.288;2023-02-15T01:05:28;52.30;;;30.87;;
76714;SDS011;65644;44.990;20.288;2023-02-15T01:07:55;57.47;;;32.87;;
76714;SDS011;65644;44.990;20.288;2023-02-15T01:10:21;55.03;;;32.73;;
76714;SDS011;65644;44.990;20.288;2023-02-15T01:12:47;57.67;;;32.47;;
76714;SDS011;65644;44.990;20.288;2023-02-15T01:15:13;55.20;;;31.37;;
76714;SDS011;65644;44.990;20.288;2023-02-15T01:17:39;54.43;;;32.03;;
76714;SDS011;65644;44.990;20.288;2023-02-15T01:20:06;57.07;;;31.97;;
76714;SDS011;65644;44.990;20.288;2023-02-15T01:22:33;58.60;;;33.10;;
76714;SDS011;65644;44.990;20.288;2023-02-15T01:24:59;55.20;;;32.63;;
76714;SDS011;65644;44.990;20.288;2023-02-15T01:27:25;52.47;;;31.53;;
76714;SDS011;65644;44.990;20.288;2023-02-15T01:29:51;50.90;;;30.93;;
76714;SDS011;65644;44.990;20.288;2023-02-15T01:32:17;53.80;;;32.23;;
76714;SDS011;65644;44.990;20.288;2023-02-15T01:34:43;54.90;;;30.60;;
76714;SDS011;65644;44.990;20.288;2023-02-15T01:37:09;52.00;;;30.13;;
76714;SDS011;65644;44.990;20.288;2023-02-15T01:39:35;53.10;;;29.97;;
76714;SDS011;65644;44.990;20.288;2023-02-15T01:42:01;52.97;;;29.37;;
76714;SDS011;65644;44.990;20.288;2023-02-15T01:47:13;51.95;;;28.77;;
76714;SDS011;65644;44.990;20.288;2023-02-15T01:49:40;53.10;;;30.00;;
76714;SDS011;65644;44.990;20.288;2023-02-15T01:52:08;48.20;;;29.77;;
76714;SDS011;65644;44.990;20.288;2023-02-15T01:54:35;52.63;;;29.67;;
76714;SDS011;65644;44.990;20.288;2023-02-15T01:57:03;51.63;;;29.57;;
76714;SDS011;65644;44.990;20.288;2023-02-15T01:59:30;54.00;;;30.20;;
76714;SDS011;65644;44.990;20.288;2023-02-15T02:01:57;50.13;;;29.20;;
76714;SDS011;65644;44.990;20.288;2023-02-15T02:04:35;50.77;;;29.83;;
76714;SDS011;65644;44.990;20.288;2023-02-15T02:07:03;47.60;;;29.47;;
76714;SDS011;65644;44.990;20.288;2023-02-15T02:09:30;47.37;;;29.67;;
76714;SDS011;65644;44.990;20.288;2023-02-15T02:11:56;51.37;;;29.30;;
76714;SDS011;65644;44.990;20.288;2023-02-15T02:14:22;52.90;;;29.13;;
76714;SDS011;65644;44.990;20.288;2023-02-15T02:22:08;48.90;;;29.17;;
76714;SDS011;65644;44.990;20.288;2023-02-15T02:37:21;48.77;;;29.10;;
76714;SDS011;65644;44.990;20.288;2023-02-15T02:47:29;55.23;;;33.20;;
76714;SDS011;65644;44.990;20.288;2023-02-15T02:50:00;56.07;;;32.13;;
76714;SDS011;65644;44.990;20.288;2023-02-15T02:52:40;62.47;;;34.23;;
76714;SDS011;65644;44.990;20.288;2023-02-15T02:55:08;56.90;;;32.37;;
76714;SDS011;65644;44.990;20.288;2023-02-15T02:57:36;61.33;;;33.47;;
76714;SDS011;65644;44.990;20.288;2023-02-15T03:00:03;60.83;;;35.33;;
76714;SDS011;65644;44.990;20.288;2023-02-15T03:02:32;57.83;;;34.07;;
76714;SDS011;65644;44.990;20.288;2023-02-15T03:05:02;62.63;;;34.73;;
76714;SDS011;65644;44.990;20.288;2023-02-15T03:07:31;58.03;;;33.87;;
76714;SDS011;65644;44.990;20.288;2023-02-15T03:09:58;61.70;;;33.70;;
76714;SDS011;65644;44.990;20.288;2023-02-15T03:12:29;54.93;;;32.67;;
76714;SDS011;65644;44.990;20.288;2023-02-15T03:17:32;51.60;;;30.07;;
76714;SDS011;65644;44.990;20.288;2023-02-15T03:20:01;53.97;;;31.07;;
76714;SDS011;65644;44.990;20.288;2023-02-15T03:22:29;58.00;;;32.50;;
76714;SDS011;65644;44.990;20.288;2023-02-15T03:24:59;59.07;;;33.33;;
76714;SDS011;65644;44.990;20.288;2023-02-15T03:27:31;57.53;;;33.07;;
76714;SDS011;65644;44.990;20.288;2023-02-15T03:29:58;69.93;;;40.60;;
76714;SDS011;65644;44.990;20.288;2023-02-15T03:32:25;67.67;;;39.27;;
76714;SDS011;65644;44.990;20.288;2023-02-15T03:34:54;63.83;;;36.17;;
76714;SDS011;65644;44.990;20.288;2023-02-15T03:42:51;86.53;;;45.70;;
76714;SDS011;65644;44.990;20.288;2023-02-15T03:45:22;74.27;;;41.73;;
76714;SDS011;65644;44.990;20.288;2023-02-15T03:47:50;67.10;;;36.80;;
76714;SDS011;65644;44.990;20.288;2023-02-15T03:50:18;64.00;;;35.30;;
76714;SDS011;65644;44.990;20.288;2023-02-15T03:53:05;63.03;;;34.67;;
76714;SDS011;65644;44.990;20.288;2023-02-15T03:55:33;58.67;;;33.00;;
76714;SDS011;65644;44.990;20.288;2023-02-15T03:57:59;55.90;;;31.40;;
76714;SDS011;65644;44.990;20.288;2023-02-15T04:00:46;58.03;;;33.70;;
76714;SDS011;65644;44.990;20.288;2023-02-15T04:03:38;55.90;;;31.97;;
76714;SDS011;65644;44.990;20.288;2023-02-15T04:06:05;57.67;;;32.67;;
76714;SDS011;65644;44.990;20.288;2023-02-15T04:08:31;56.33;;;31.27;;
76714;SDS011;65644;44.990;20.288;2023-02-15T04:11:16;57.97;;;32.25;;
76714;SDS011;65644;44.990;20.288;2023-02-15T04:13:42;56.60;;;32.20;;
76714;SDS011;65644;44.990;20.288;2023-02-15T04:16:08;56.20;;;31.63;;
76714;SDS011;65644;44.990;20.288;2023-02-15T04:18:40;57.53;;;31.53;;
76714;SDS011;65644;44.990;20.288;2023-02-15T04:21:26;57.93;;;31.43;;
76714;SDS011;65644;44.990;20.288;2023-02-15T04:24:11;55.55;;;30.65;;
76714;SDS011;65644;44.990;20.288;2023-02-15T04:26:56;52.42;;;30.75;;
76714;SDS011;65644;44.990;20.288;2023-02-15T04:29:23;52.50;;;29.27;;
76714;SDS011;65644;44.990;20.288;2023-02-15T04:31:50;55.30;;;31.03;;
76714;SDS011;65644;44.990;20.288;2023-02-15T04:34:16;52.17;;;29.80;;
76714;SDS011;65644;44.990;20.288;2023-02-15T04:36:42;58.67;;;32.90;;
76714;SDS011;65644;44.990;20.288;2023-02-15T04:39:08;59.07;;;35.80;;
76714;SDS011;65644;44.990;20.288;2023-02-15T04:41:35;62.33;;;36.17;;
76714;SDS011;65644;44.990;20.288;2023-02-15T04:44:01;58.23;;;34.60;;
76714;SDS011;65644;44.990;20.288;2023-02-15T04:46:27;58.57;;;34.37;;
76714;SDS011;65644;44.990;20.288;2023-02-15T04:48:54;58.67;;;33.60;;
76714;SDS011;65644;44.990;20.288;2023-02-15T04:51:20;64.10;;;35.97;;
76714;SDS011;65644;44.990;20.288;2023-02-15T04:53:46;57.90;;;32.47;;
76714;SDS011;65644;44.990;20.288;2023-02-15T04:56:12;56.60;;;31.93;;
76714;SDS011;65644;44.990;20.288;2023-02-15T04:58:38;56.27;;;31.23;;
76714;SDS011;65644;44.990;20.288;2023-02-15T05:01:07;55.43;;;29.90;;
76714;SDS011;65644;44.990;20.288;2023-02-15T05:03:34;55.43;;;31.27;;
76714;SDS011;65644;44.990;20.288;2023-02-15T05:06:00;48.03;;;29.57;;
76714;SDS011;65644;44.990;20.288;2023-02-15T05:08:26;50.60;;;29.60;;
76714;SDS011;65644;44.990;20.288;2023-02-15T05:10:52;48.47;;;27.67;;
76714;SDS011;65644;44.990;20.288;2023-02-15T05:13:18;49.67;;;28.23;;
76714;SDS011;65644;44.990;20.288;2023-02-15T05:15:48;53.27;;;29.90;;
76714;SDS011;65644;44.990;20.288;2023-02-15T05:18:15;56.20;;;31.57;;
76714;SDS011;65644;44.990;20.288;2023-02-15T05:20:41;63.70;;;30.97;;
76714;SDS011;65644;44.990;20.288;2023-02-15T05:23:07;64.00;;;32.60;;
76714;SDS011;65644;44.990;20.288;2023-02-15T05:25:33;59.27;;;31.30;;
76714;SDS011;65644;44.990;20.288;2023-02-15T05:28:18;58.73;;;32.77;;
76714;SDS011;65644;44.990;20.288;2023-02-15T05:30:44;59.00;;;33.07;;
76714;SDS011;65644;44.990;20.288;2023-02-15T05:33:10;62.07;;;34.07;;
76714;SDS011;65644;44.990;20.288;2023-02-15T05:35:36;62.50;;;35.03;;
76714;SDS011;65644;44.990;20.288;2023-02-15T05:38:02;73.07;;;37.67;;
76714;SDS011;65644;44.990;20.288;2023-02-15T05:40:28;74.23;;;39.07;;
76714;SDS011;65644;44.990;20.288;2023-02-15T05:42:54;68.97;;;39.57;;
76714;SDS011;65644;44.990;20.288;2023-02-15T05:45:21;72.33;;;40.27;;
76714;SDS011;65644;44.990;20.288;2023-02-15T05:47:47;70.90;;;40.43;;
76714;SDS011;65644;44.990;20.288;2023-02-15T05:50:13;70.70;;;39.90;;
76714;SDS011;65644;44.990;20.288;2023-02-15T05:52:39;73.90;;;41.13;;
76714;SDS011;65644;44.990;20.288;2023-02-15T05:55:05;74.47;;;41.13;;
76714;SDS011;65644;44.990;20.288;2023-02-15T05:57:33;78.20;;;42.13;;
76714;SDS011;65644;44.990;20.288;2023-02-15T05:59:59;74.47;;;40.67;;
76714;SDS011;65644;44.990;20.288;2023-02-15T06:02:26;69.43;;;38.60;;
76714;SDS011;65644;44.990;20.288;2023-02-15T06:04:52;70.77;;;39.83;;
76714;SDS011;65644;44.990;20.288;2023-02-15T06:07:19;76.37;;;41.33;;
76714;SDS011;65644;44.990;20.288;2023-02-15T06:09:45;82.40;;;44.13;;
76714;SDS011;65644;44.990;20.288;2023-02-15T06:12:11;77.87;;;41.87;;
76714;SDS011;65644;44.990;20.288;2023-02-15T06:14:37;73.50;;;41.47;;
76714;SDS011;65644;44.990;20.288;2023-02-15T06:17:03;74.83;;;41.13;;
76714;SDS011;65644;44.990;20.288;2023-02-15T06:19:29;68.37;;;38.90;;
76714;SDS011;65644;44.990;20.288;2023-02-15T06:21:55;71.47;;;38.60;;
76714;SDS011;65644;44.990;20.288;2023-02-15T06:24:21;71.97;;;38.97;;
76714;SDS011;65644;44.990;20.288;2023-02-15T06:26:47;66.00;;;38.20;;
76714;SDS011;65644;44.990;20.288;2023-02-15T06:29:13;66.33;;;37.27;;
76714;SDS011;65644;44.990;20.288;2023-02-15T06:31:39;66.40;;;38.50;;
76714;SDS011;65644;44.990;20.288;2023-02-15T06:34:06;66.03;;;37.30;;
76714;SDS011;65644;44.990;20.288;2023-02-15T06:36:32;66.93;;;38.83;;
76714;SDS011;65644;44.990;20.288;2023-02-15T06:38:58;66.40;;;36.67;;
76714;SDS011;65644;44.990;20.288;2023-02-15T06:41:24;65.33;;;36.93;;
76714;SDS011;65644;44.990;20.288;2023-02-15T06:43:50;64.73;;;36.87;;
76714;SDS011;65644;44.990;20.288;2023-02-15T06:46:16;64.63;;;39.53;;
76714;SDS011;65644;44.990;20.288;2023-02-15T06:48:42;67.97;;;36.80;;
76714;SDS011;65644;44.990;20.288;2023-02-15T06:51:08;71.83;;;43.40;;
76714;SDS011;65644;44.990;20.288;2023-02-15T06:53:34;148.57;;;90.07;;
76714;SDS011;65644;44.990;20.288;2023-02-15T06:56:04;97.73;;;57.73;;
76714;SDS011;65644;44.990;20.288;2023-02-15T06:58:35;94.47;;;56.70;;
76714;SDS011;65644;44.990;20.288;2023-02-15T07:01:01;83.10;;;50.87;;
76714;SDS011;65644;44.990;20.288;2023-02-15T07:03:27;57.10;;;36.23;;
76714;SDS011;65644;44.990;20.288;2023-02-15T07:05:56;49.57;;;32.50;;
76714;SDS011;65644;44.990;20.288;2023-02-15T07:08:23;50.53;;;31.20;;
76714;SDS011;65644;44.990;20.288;2023-02-15T07:10:50;57.10;;;32.07;;
76714;SDS011;65644;44.990;20.288;2023-02-15T07:13:16;51.70;;;32.23;;
76714;SDS011;65644;44.990;20.288;2023-02-15T07:15:42;48.38;;;31.10;;
76714;SDS011;65644;44.990;20.288;2023-02-15T07:18:08;89.15;;;61.45;;
76714;SDS011;65644;44.990;20.288;2023-02-15T07:20:35;85.95;;;58.50;;
76714;SDS011;65644;44.990;20.288;2023-02-15T07:23:02;61.60;;;38.97;;
76714;SDS011;65644;44.990;20.288;2023-02-15T07:25:28;142.40;;;78.63;;
76714;SDS011;65644;44.990;20.288;2023-02-15T07:27:56;129.32;;;76.72;;
76714;SDS011;65644;44.990;20.288;2023-02-15T07:30:22;79.82;;;52.50;;
76714;SDS011;65644;44.990;20.288;2023-02-15T07:32:48;56.05;;;33.78;;
76714;SDS011;65644;44.990;20.288;2023-02-15T07:35:37;45.13;;;31.30;;
76714;SDS011;65644;44.990;20.288;2023-02-15T07:38:03;51.08;;;33.70;;
76714;SDS011;65644;44.990;20.288;2023-02-15T07:40:29;49.05;;;33.75;;
76714;SDS011;65644;44.990;20.288;2023-02-15T07:42:57;51.72;;;36.50;;
76714;SDS011;65644;44.990;20.288;2023-02-15T07:45:23;57.85;;;42.90;;
76714;SDS011;65644;44.990;20.288;2023-02-15T07:47:49;47.72;;;36.17;;
76714;SDS011;65644;44.990;20.288;2023-02-15T07:50:16;46.13;;;33.95;;
76714;SDS011;65644;44.990;20.288;2023-02-15T07:52:42;46.15;;;34.30;;
76714;SDS011;65644;44.990;20.288;2023-02-15T07:55:08;49.22;;;36.55;;
76714;SDS011;65644;44.990;20.288;2023-02-15T07:57:37;56.63;;;40.05;;
76714;SDS011;65644;44.990;20.288;2023-02-15T08:00:03;59.92;;;44.40;;
76714;SDS011;65644;44.990;20.288;2023-02-15T08:02:29;53.60;;;41.35;;
76714;SDS011;65644;44.990;20.288;2023-02-15T08:04:55;54.75;;;39.15;;
76714;SDS011;65644;44.990;20.288;2023-02-15T08:07:21;57.80;;;40.33;;
76714;SDS011;65644;44.990;20.288;2023-02-15T08:09:47;52.92;;;38.10;;
76714;SDS011;65644;44.990;20.288;2023-02-15T08:12:13;59.78;;;42.95;;
76714;SDS011;65644;44.990;20.288;2023-02-15T08:14:39;58.03;;;41.13;;
76714;SDS011;65644;44.990;20.288;2023-02-15T08:17:05;54.75;;;38.13;;
76714;SDS011;65644;44.990;20.288;2023-02-15T08:19:32;50.78;;;36.28;;
76714;SDS011;65644;44.990;20.288;2023-02-15T08:22:00;53.83;;;37.33;;
76714;SDS011;65644;44.990;20.288;2023-02-15T08:24:28;52.67;;;36.28;;
76714;SDS011;65644;44.990;20.288;2023-02-15T08:26:54;56.45;;;36.72;;
76714;SDS011;65644;44.990;20.288;2023-02-15T08:29:22;51.60;;;35.83;;
76714;SDS011;65644;44.990;20.288;2023-02-15T08:31:49;56.83;;;36.67;;
76714;SDS011;65644;44.990;20.288;2023-02-15T08:34:17;53.00;;;36.88;;
76714;SDS011;65644;44.990;20.288;2023-02-15T08:36:43;55.22;;;37.67;;
76714;SDS011;65644;44.990;20.288;2023-02-15T08:39:13;57.60;;;39.67;;
76714;SDS011;65644;44.990;20.288;2023-02-15T08:41:42;60.78;;;38.58;;
76714;SDS011;65644;44.990;20.288;2023-02-15T08:44:08;62.53;;;39.67;;
76714;SDS011;65644;44.990;20.288;2023-02-15T08:46:36;65.00;;;39.42;;
76714;SDS011;65644;44.990;20.288;2023-02-15T08:49:02;64.57;;;40.03;;
76714;SDS011;65644;44.990;20.288;2023-02-15T08:51:29;67.45;;;40.97;;
76714;SDS011;65644;44.990;20.288;2023-02-15T08:53:57;66.00;;;40.00;;
76714;SDS011;65644;44.990;20.288;2023-02-15T08:56:25;61.80;;;37.97;;
76714;SDS011;65644;44.990;20.288;2023-02-15T08:58:51;63.05;;;39.63;;
76714;SDS011;65644;44.990;20.288;2023-02-15T09:01:19;61.08;;;39.28;;
76714;SDS011;65644;44.990;20.288;2023-02-15T09:03:46;65.93;;;39.15;;
76714;SDS011;65644;44.990;20.288;2023-02-15T09:06:12;61.72;;;40.22;;
76714;SDS011;65644;44.990;20.288;2023-02-15T09:08:38;64.88;;;44.13;;
76714;SDS011;65644;44.990;20.288;2023-02-15T09:11:05;76.95;;;47.67;;
76714;SDS011;65644;44.990;20.288;2023-02-15T09:13:33;59.85;;;39.17;;
76714;SDS011;65644;44.990;20.288;2023-02-15T09:16:03;57.80;;;38.28;;
76714;SDS011;65644;44.990;20.288;2023-02-15T09:18:30;66.57;;;40.53;;
76714;SDS011;65644;44.990;20.288;2023-02-15T09:21:03;58.00;;;37.72;;
76714;SDS011;65644;44.990;20.288;2023-02-15T09:23:29;58.83;;;39.20;;
76714;SDS011;65644;44.990;20.288;2023-02-15T09:25:55;53.90;;;35.10;;
76714;SDS011;65644;44.990;20.288;2023-02-15T09:28:21;54.38;;;34.35;;
76714;SDS011;65644;44.990;20.288;2023-02-15T09:30:47;47.35;;;32.00;;
76714;SDS011;65644;44.990;20.288;2023-02-15T09:33:13;48.45;;;33.60;;
76714;SDS011;65644;44.990;20.288;2023-02-15T09:35:39;49.17;;;31.88;;
76714;SDS011;65644;44.990;20.288;2023-02-15T09:38:05;41.33;;;26.83;;
76714;SDS011;65644;44.990;20.288;2023-02-15T09:40:33;45.17;;;29.80;;
76714;SDS011;65644;44.990;20.288;2023-02-15T09:48:14;37.80;;;19.77;;
76714;SDS011;65644;44.990;20.288;2023-02-15T10:22:16;28.55;;;18.55;;
76714;SDS011;65644;44.990;20.288;2023-02-15T10:27:00;31.45;;;20.20;;
76714;SDS011;65644;44.990;20.288;2023-02-15T10:34:30;26.20;;;17.27;;
76714;SDS011;65644;44.990;20.288;2023-02-15T10:39:25;28.33;;;20.20;;
76714;SDS011;65644;44.990;20.288;2023-02-15T10:52:45;30.30;;;20.48;;
76714;SDS011;65644;44.990;20.288;2023-02-15T10:58:07;25.02;;;18.25;;
76714;SDS011;65644;44.990;20.288;2023-02-15T11:00:53;26.70;;;18.85;;
76714;SDS011;65644;44.990;20.288;2023-02-15T11:03:51;28.42;;;18.73;;
76714;SDS011;65644;44.990;20.288;2023-02-15T11:06:12;28.25;;;20.17;;
76714;SDS011;65644;44.990;20.288;2023-02-15T11:08:42;31.40;;;21.63;;
76714;SDS011;65644;44.990;20.288;2023-02-15T11:11:14;27.98;;;19.98;;
76714;SDS011;65644;44.990;20.288;2023-02-15T11:13:45;33.63;;;21.58;;
76714;SDS011;65644;44.990;20.288;2023-02-15T11:16:14;27.10;;;19.42;;
76714;SDS011;65644;44.990;20.288;2023-02-15T11:18:43;26.98;;;19.30;;
76714;SDS011;65644;44.990;20.288;2023-02-15T11:21:18;26.80;;;19.30;;
76714;SDS011;65644;44.990;20.288;2023-02-15T11:28:58;27.33;;;18.95;;
76714;SDS011;65644;44.990;20.288;2023-02-15T11:31:26;32.10;;;19.02;;
76714;SDS011;65644;44.990;20.288;2023-02-15T11:33:58;25.27;;;18.52;;
76714;SDS011;65644;44.990;20.288;2023-02-15T11:36:25;25.02;;;17.75;;
76714;SDS011;65644;44.990;20.288;2023-02-15T11:38:56;25.45;;;19.38;;
76714;SDS011;65644;44.990;20.288;2023-02-15T11:41:27;28.73;;;19.77;;
76714;SDS011;65644;44.990;20.288;2023-02-15T11:43:56;26.48;;;19.60;;
76714;SDS011;65644;44.990;20.288;2023-02-15T11:46:24;28.17;;;18.98;;
76714;SDS011;65644;44.990;20.288;2023-02-15T11:48:50;30.08;;;19.52;;
76714;SDS011;65644;44.990;20.288;2023-02-15T11:51:20;28.20;;;19.75;;
76714;SDS011;65644;44.990;20.288;2023-02-15T11:53:47;27.80;;;19.75;;
76714;SDS011;65644;44.990;20.288;2023-02-15T11:56:18;27.63;;;19.70;;
76714;SDS011;65644;44.990;20.288;2023-02-15T11:58:45;27.60;;;20.10;;
76714;SDS011;65644;44.990;20.288;2023-02-15T12:06:23;54.28;;;33.70;;
76714;SDS011;65644;44.990;20.288;2023-02-15T12:11:38;29.08;;;21.45;;
76714;SDS011;65644;44.990;20.288;2023-02-15T12:14:06;35.70;;;25.25;;
76714;SDS011;65644;44.990;20.288;2023-02-15T12:16:54;74.78;;;47.78;;
76714;SDS011;65644;44.990;20.288;2023-02-15T12:21:51;31.00;;;21.48;;
76714;SDS011;65644;44.990;20.288;2023-02-15T12:24:43;27.98;;;19.73;;
76714;SDS011;65644;44.990;20.288;2023-02-15T12:27:26;31.90;;;20.30;;
76714;SDS011;65644;44.990;20.288;2023-02-15T12:29:56;28.45;;;21.67;;
76714;SDS011;65644;44.990;20.288;2023-02-15T12:32:24;29.95;;;20.17;;
76714;SDS011;65644;44.990;20.288;2023-02-15T12:34:50;31.58;;;21.83;;
76714;SDS011;65644;44.990;20.288;2023-02-15T12:37:19;27.98;;;19.67;;
76714;SDS011;65644;44.990;20.288;2023-02-15T12:39:51;43.28;;;28.98;;
76714;SDS011;65644;44.990;20.288;2023-02-15T12:42:17;28.25;;;19.65;;
76714;SDS011;65644;44.990;20.288;2023-02-15T12:45:19;30.15;;;21.20;;
76714;SDS011;65644;44.990;20.288;2023-02-15T12:47:30;29.00;;;20.83;;
76714;SDS011;65644;44.990;20.288;2023-02-15T12:53:32;29.02;;;21.08;;
76714;SDS011;65644;44.990;20.288;2023-02-15T12:55:51;28.17;;;19.60;;
76714;SDS011;65644;44.990;20.288;2023-02-15T12:58:19;25.02;;;19.63;;
76714;SDS011;65644;44.990;20.288;2023-02-15T13:00:47;27.05;;;21.08;;
76714;SDS011;65644;44.990;20.288;2023-02-15T13:03:22;25.83;;;19.67;;
76714;SDS011;65644;44.990;20.288;2023-02-15T13:05:53;27.63;;;19.55;;
76714;SDS011;65644;44.990;20.288;2023-02-15T13:08:30;30.13;;;21.88;;
76714;SDS011;65644;44.990;20.288;2023-02-15T13:11:00;29.98;;;22.60;;
76714;SDS011;65644;44.990;20.288;2023-02-15T13:13:28;28.55;;;20.92;;
76714;SDS011;65644;44.990;20.288;2023-02-15T13:16:04;26.05;;;19.48;;
76714;SDS011;65644;44.990;20.288;2023-02-15T13:18:33;26.77;;;20.00;;
76714;SDS011;65644;44.990;20.288;2023-02-15T13:21:13;28.48;;;20.13;;
76714;SDS011;65644;44.990;20.288;2023-02-15T13:23:42;28.30;;;21.40;;
76714;SDS011;65644;44.990;20.288;2023-02-15T13:26:11;26.75;;;20.63;;
76714;SDS011;65644;44.990;20.288;2023-02-15T13:28:43;24.77;;;19.17;;
76714;SDS011;65644;44.990;20.288;2023-02-15T13:31:20;27.20;;;20.13;;
76714;SDS011;65644;44.990;20.288;2023-02-15T13:33:48;27.42;;;20.02;;
76714;SDS011;65644;44.990;20.288;2023-02-15T13:36:23;27.10;;;19.50;;
76714;SDS011;65644;44.990;20.288;2023-02-15T13:39:11;24.45;;;18.73;;
76714;SDS011;65644;44.990;20.288;2023-02-15T13:44:49;23.27;;;19.35;;
76714;SDS011;65644;44.990;20.288;2023-02-15T13:52:27;26.25;;;19.77;;
76714;SDS011;65644;44.990;20.288;2023-02-15T14:18:24;28.00;;;20.35;;
76714;SDS011;65644;44.990;20.288;2023-02-15T14:20:55;26.38;;;19.92;;
76714;SDS011;65644;44.990;20.288;2023-02-15T14:31:11;24.23;;;18.50;;
76714;SDS011;65644;44.990;20.288;2023-02-15T14:33:39;25.98;;;19.10;;
76714;SDS011;65644;44.990;20.288;2023-02-15T14:36:08;26.50;;;19.08;;
76714;SDS011;65644;44.990;20.288;2023-02-15T14:41:04;30.15;;;22.27;;
76714;SDS011;65644;44.990;20.288;2023-02-15T14:46:30;31.48;;;20.20;;
76714;SDS011;65644;44.990;20.288;2023-02-15T14:54:04;28.73;;;21.02;;
76714;SDS011;65644;44.990;20.288;2023-02-15T14:56:30;26.00;;;19.73;;
76714;SDS011;65644;44.990;20.288;2023-02-15T14:58:57;30.42;;;21.75;;
76714;SDS011;65644;44.990;20.288;2023-02-15T15:01:33;30.92;;;21.70;;
76714;SDS011;65644;44.990;20.288;2023-02-15T15:04:01;42.17;;;27.17;;
76714;SDS011;65644;44.990;20.288;2023-02-15T15:06:32;32.13;;;22.10;;
76714;SDS011;65644;44.990;20.288;2023-02-15T15:09:00;34.97;;;22.67;;
76714;SDS011;65644;44.990;20.288;2023-02-15T15:11:41;28.83;;;20.55;;
76714;SDS011;65644;44.990;20.288;2023-02-15T15:14:07;32.55;;;21.23;;
76714;SDS011;65644;44.990;20.288;2023-02-15T15:19:03;35.30;;;22.73;;
76714;SDS011;65644;44.990;20.288;2023-02-15T15:29:41;43.03;;;30.90;;
76714;SDS011;65644;44.990;20.288;2023-02-15T15:32:08;64.93;;;34.10;;
76714;SDS011;65644;44.990;20.288;2023-02-15T15:37:43;49.92;;;28.95;;
76714;SDS011;65644;44.990;20.288;2023-02-15T15:42:50;48.63;;;30.50;;
76714;SDS011;65644;44.990;20.288;2023-02-15T15:45:38;67.85;;;35.05;;
76714;SDS011;65644;44.990;20.288;2023-02-15T15:50:39;79.55;;;42.33;;
76714;SDS011;65644;44.990;20.288;2023-02-15T15:53:05;81.85;;;46.85;;
76714;SDS011;65644;44.990;20.288;2023-02-15T15:55:32;68.53;;;39.55;;
76714;SDS011;65644;44.990;20.288;2023-02-15T15:58:00;50.72;;;30.77;;
76714;SDS011;65644;44.990;20.288;2023-02-15T16:03:03;43.55;;;28.67;;
76714;SDS011;65644;44.990;20.288;2023-02-15T16:05:38;72.18;;;33.45;;
76714;SDS011;65644;44.990;20.288;2023-02-15T16:10:30;40.67;;;21.85;;
76714;SDS011;65644;44.990;20.288;2023-02-15T16:12:57;35.30;;;22.20;;
76714;SDS011;65644;44.990;20.288;2023-02-15T16:15:25;36.33;;;21.10;;
76714;SDS011;65644;44.990;20.288;2023-02-15T16:17:56;45.75;;;24.63;;
76714;SDS011;65644;44.990;20.288;2023-02-15T16:20:29;40.85;;;22.65;;
76714;SDS011;65644;44.990;20.288;2023-02-15T16:23:02;35.58;;;20.58;;
76714;SDS011;65644;44.990;20.288;2023-02-15T16:28:08;35.10;;;21.13;;
76714;SDS011;65644;44.990;20.288;2023-02-15T16:30:36;40.72;;;21.48;;
76714;SDS011;65644;44.990;20.288;2023-02-15T16:33:11;40.47;;;22.92;;
76714;SDS011;65644;44.990;20.288;2023-02-15T16:35:52;41.63;;;22.52;;
76714;SDS011;65644;44.990;20.288;2023-02-15T16:38:19;37.63;;;20.02;;
76714;SDS011;65644;44.990;20.288;2023-02-15T16:40:47;37.38;;;21.23;;
76714;SDS011;65644;44.990;20.288;2023-02-15T16:43:15;37.70;;;20.55;;
76714;SDS011;65644;44.990;20.288;2023-02-15T16:45:42;40.65;;;22.13;;
76714;SDS011;65644;44.990;20.288;2023-02-15T16:48:11;55.83;;;23.23;;
76714;SDS011;65644;44.990;20.288;2023-02-15T16:50:38;47.55;;;20.67;;
76714;SDS011;65644;44.990;20.288;2023-02-15T16:53:05;51.28;;;26.08;;
76714;SDS011;65644;44.990;20.288;2023-02-15T16:55:37;63.92;;;30.38;;
76714;SDS011;65644;44.990;20.288;2023-02-15T16:58:05;70.32;;;36.70;;
76714;SDS011;65644;44.990;20.288;2023-02-15T17:00:36;153.05;;;81.10;;
76714;SDS011;65644;44.990;20.288;2023-02-15T17:03:04;263.30;;;137.18;;
76714;SDS011;65644;44.990;20.288;2023-02-15T17:05:31;175.52;;;94.22;;
76714;SDS011;65644;44.990;20.288;2023-02-15T17:08:12;200.57;;;106.63;;
76714;SDS011;65644;44.990;20.288;2023-02-15T17:10:40;167.07;;;91.45;;
76714;SDS011;65644;44.990;20.288;2023-02-15T17:13:11;108.68;;;61.08;;
76714;SDS011;65644;44.990;20.288;2023-02-15T17:15:39;106.97;;;58.97;;
76714;SDS011;65644;44.990;20.288;2023-02-15T17:18:06;123.07;;;66.28;;
76714;SDS011;65644;44.990;20.288;2023-02-15T17:20:35;128.63;;;69.93;;
76714;SDS011;65644;44.990;20.288;2023-02-15T17:23:03;75.75;;;43.90;;
76714;SDS011;65644;44.990;20.288;2023-02-15T17:25:38;76.45;;;44.08;;
76714;SDS011;65644;44.990;20.288;2023-02-15T17:28:15;49.58;;;30.90;;
76714;SDS011;65644;44.990;20.288;2023-02-15T17:30:42;48.80;;;27.13;;
76714;SDS011;65644;44.990;20.288;2023-02-15T17:33:21;50.70;;;30.40;;